sensor_id;sensor_type;location;lat;lon;timestamp;P1;durP1;ratioP1;P2;durP2;ratioP2
12956;SDS011;6543;48.836;10.092;2023-06-19T00:01:41;6.93;;;5.88;;
12956;SDS011;6543;48.836;10.092;2023-06-19T00:04:08;8.30;;;6.60;;
12956;SDS011;6543;48.836;10.092;2023-06-19T00:06:35;6.63;;;6.00;;
12956;SDS011;6543;48.836;10.092;2023-06-19T00:09:02;8.57;;;6.22;;
12956;SDS011;6543;48.836;10.092;2023-06-19T00:11:30;9.02;;;6.90;;
12956;SDS011;6543;48.836;10.092;2023-06-19T00:13:56;7.82;;;7.03;;
12956;SDS011;6543;48.836;10.092;2023-06-19T00:16:25;8.43;;;6.10;;
12956;SDS011;6543;48.836;10.092;2023-06-19T00:18:51;8.20;;;6.65;;
12956;SDS011;6543;48.836;10.092;2023-06-19T00:21:21;8.57;;;6.18;;
12956;SDS011;6543;48.836;10.092;2023-06-19T00:23:48;8.20;;;6.70;;
12956;SDS011;6543;48.836;10.092;2023-06-19T00:26:15;10.30;;;6.53;;
12956;SDS011;6543;48.836;10.092;2023-06-19T00:28:42;7.30;;;6.38;;
12956;SDS011;6543;48.836;10.092;2023-06-19T00:31:10;7.50;;;6.63;;
12956;SDS011;6543;48.836;10.092;2023-06-19T00:33:39;15.38;;;7.10;;
12956;SDS011;6543;48.836;10.092;2023-06-19T00:36:08;10.23;;;6.57;;
12956;SDS011;6543;48.836;10.092;2023-06-19T00:38:35;10.05;;;6.32;;
12956;SDS011;6543;48.836;10.092;2023-06-19T00:41:03;8.52;;;6.55;;
12956;SDS011;6543;48.836;10.092;2023-06-19T00:43:30;10.13;;;6.75;;
12956;SDS011;6543;48.836;10.092;2023-06-19T00:45:57;9.10;;;6.50;;
12956;SDS011;6543;48.836;10.092;2023-06-19T00:48:24;8.85;;;6.90;;
12956;SDS011;6543;48.836;10.092;2023-06-19T00:50:54;10.15;;;6.63;;
12956;SDS011;6543;48.836;10.092;2023-06-19T00:53:23;8.27;;;6.47;;
12956;SDS011;6543;48.836;10.092;2023-06-19T00:55:50;7.57;;;6.78;;
12956;SDS011;6543;48.836;10.092;2023-06-19T00:58:18;11.55;;;6.40;;
12956;SDS011;6543;48.836;10.092;2023-06-19T01:00:46;8.68;;;7.10;;
12956;SDS011;6543;48.836;10.092;2023-06-19T01:03:13;8.13;;;6.10;;
12956;SDS011;6543;48.836;10.092;2023-06-19T01:05:40;10.35;;;7.47;;
12956;SDS011;6543;48.836;10.092;2023-06-19T01:08:10;8.00;;;6.03;;
12956;SDS011;6543;48.836;10.092;2023-06-19T01:10:42;8.57;;;6.75;;
12956;SDS011;6543;48.836;10.092;2023-06-19T01:13:15;8.25;;;6.47;;
12956;SDS011;6543;48.836;10.092;2023-06-19T01:15:48;7.22;;;6.53;;
12956;SDS011;6543;48.836;10.092;2023-06-19T01:18:15;8.68;;;6.63;;
12956;SDS011;6543;48.836;10.092;2023-06-19T01:20:42;9.73;;;6.32;;
12956;SDS011;6543;48.836;10.092;2023-06-19T01:23:11;7.80;;;6.95;;
12956;SDS011;6543;48.836;10.092;2023-06-19T01:25:38;11.52;;;7.50;;
12956;SDS011;6543;48.836;10.092;2023-06-19T01:28:06;10.38;;;6.50;;
12956;SDS011;6543;48.836;10.092;2023-06-19T01:30:37;7.35;;;6.18;;
12956;SDS011;6543;48.836;10.092;2023-06-19T01:33:08;8.90;;;6.53;;
12956;SDS011;6543;48.836;10.092;2023-06-19T01:35:41;11.35;;;6.80;;
12956;SDS011;6543;48.836;10.092;2023-06-19T01:38:08;10.07;;;7.07;;
12956;SDS011;6543;48.836;10.092;2023-06-19T01:40:38;9.00;;;7.20;;
12956;SDS011;6543;48.836;10.092;2023-06-19T01:43:07;10.38;;;7.60;;
12956;SDS011;6543;48.836;10.092;2023-06-19T01:45:35;8.40;;;6.35;;
12956;SDS011;6543;48.836;10.092;2023-06-19T01:48:02;8.80;;;6.40;;
12956;SDS011;6543;48.836;10.092;2023-06-19T01:50:29;8.32;;;6.95;;
12956;SDS011;6543;48.836;10.092;2023-06-19T01:52:56;10.32;;;6.82;;
12956;SDS011;6543;48.836;10.092;2023-06-19T01:55:24;8.32;;;7.15;;
12956;SDS011;6543;48.836;10.092;2023-06-19T01:57:50;9.43;;;7.65;;
12956;SDS011;6543;48.836;10.092;2023-06-19T02:00:18;9.20;;;6.72;;
12956;SDS011;6543;48.836;10.092;2023-06-19T02:02:45;10.65;;;6.75;;
12956;SDS011;6543;48.836;10.092;2023-06-19T02:05:12;13.77;;;7.40;;
12956;SDS011;6543;48.836;10.092;2023-06-19T02:07:39;9.32;;;7.43;;
12956;SDS011;6543;48.836;10.092;2023-06-19T02:10:06;9.90;;;7.47;;
12956;SDS011;6543;48.836;10.092;2023-06-19T02:12:35;13.43;;;8.10;;
12956;SDS011;6543;48.836;10.092;2023-06-19T02:15:02;11.80;;;7.55;;
12956;SDS011;6543;48.836;10.092;2023-06-19T02:17:29;9.20;;;7.20;;
12956;SDS011;6543;48.836;10.092;2023-06-19T02:19:56;12.85;;;7.65;;
12956;SDS011;6543;48.836;10.092;2023-06-19T02:22:23;11.40;;;7.35;;
12956;SDS011;6543;48.836;10.092;2023-06-19T02:24:49;8.48;;;7.13;;
12956;SDS011;6543;48.836;10.092;2023-06-19T02:27:16;9.18;;;7.25;;
12956;SDS011;6543;48.836;10.092;2023-06-19T02:29:44;8.63;;;7.13;;
12956;SDS011;6543;48.836;10.092;2023-06-19T02:32:11;7.10;;;6.40;;
12956;SDS011;6543;48.836;10.092;2023-06-19T02:34:38;9.00;;;7.32;;
12956;SDS011;6543;48.836;10.092;2023-06-19T02:37:05;9.90;;;6.90;;
12956;SDS011;6543;48.836;10.092;2023-06-19T02:39:33;8.80;;;7.22;;
12956;SDS011;6543;48.836;10.092;2023-06-19T02:42:00;8.98;;;6.93;;
12956;SDS011;6543;48.836;10.092;2023-06-19T02:44:26;11.05;;;7.50;;
12956;SDS011;6543;48.836;10.092;2023-06-19T02:46:54;11.05;;;7.07;;
12956;SDS011;6543;48.836;10.092;2023-06-19T02:49:21;12.48;;;7.28;;
12956;SDS011;6543;48.836;10.092;2023-06-19T02:51:48;9.82;;;7.05;;
12956;SDS011;6543;48.836;10.092;2023-06-19T02:54:15;7.60;;;6.85;;
12956;SDS011;6543;48.836;10.092;2023-06-19T02:56:42;8.98;;;6.55;;
12956;SDS011;6543;48.836;10.092;2023-06-19T02:59:08;6.82;;;6.07;;
12956;SDS011;6543;48.836;10.092;2023-06-19T03:01:35;8.07;;;5.80;;
12956;SDS011;6543;48.836;10.092;2023-06-19T03:04:03;8.25;;;5.90;;
12956;SDS011;6543;48.836;10.092;2023-06-19T03:06:30;9.95;;;7.47;;
12956;SDS011;6543;48.836;10.092;2023-06-19T03:08:58;10.63;;;7.30;;
12956;SDS011;6543;48.836;10.092;2023-06-19T03:11:25;11.40;;;7.10;;
12956;SDS011;6543;48.836;10.092;2023-06-19T03:13:52;10.52;;;7.00;;
12956;SDS011;6543;48.836;10.092;2023-06-19T03:16:20;8.23;;;7.13;;
12956;SDS011;6543;48.836;10.092;2023-06-19T03:18:47;9.25;;;6.88;;
12956;SDS011;6543;48.836;10.092;2023-06-19T03:21:16;8.05;;;6.43;;
12956;SDS011;6543;48.836;10.092;2023-06-19T03:23:44;8.43;;;6.18;;
12956;SDS011;6543;48.836;10.092;2023-06-19T03:26:11;6.85;;;6.13;;
12956;SDS011;6543;48.836;10.092;2023-06-19T03:28:39;8.48;;;6.68;;
12956;SDS011;6543;48.836;10.092;2023-06-19T03:31:06;9.05;;;6.45;;
12956;SDS011;6543;48.836;10.092;2023-06-19T03:33:33;8.10;;;6.43;;
12956;SDS011;6543;48.836;10.092;2023-06-19T03:36:00;12.10;;;7.00;;
12956;SDS011;6543;48.836;10.092;2023-06-19T03:38:28;9.40;;;6.53;;
12956;SDS011;6543;48.836;10.092;2023-06-19T03:40:54;9.07;;;6.30;;
12956;SDS011;6543;48.836;10.092;2023-06-19T03:43:21;9.82;;;6.65;;
12956;SDS011;6543;48.836;10.092;2023-06-19T03:45:48;7.55;;;6.75;;
12956;SDS011;6543;48.836;10.092;2023-06-19T03:48:15;6.60;;;5.82;;
12956;SDS011;6543;48.836;10.092;2023-06-19T03:50:42;9.57;;;6.65;;
12956;SDS011;6543;48.836;10.092;2023-06-19T03:53:08;10.30;;;7.18;;
12956;SDS011;6543;48.836;10.092;2023-06-19T03:55:37;11.15;;;6.78;;
12956;SDS011;6543;48.836;10.092;2023-06-19T03:58:04;9.55;;;6.68;;
12956;SDS011;6543;48.836;10.092;2023-06-19T04:00:31;8.40;;;6.35;;
12956;SDS011;6543;48.836;10.092;2023-06-19T04:02:57;10.43;;;6.40;;
12956;SDS011;6543;48.836;10.092;2023-06-19T04:05:24;7.00;;;6.03;;
12956;SDS011;6543;48.836;10.092;2023-06-19T04:07:51;7.57;;;5.95;;
12956;SDS011;6543;48.836;10.092;2023-06-19T04:10:18;7.05;;;6.10;;
12956;SDS011;6543;48.836;10.092;2023-06-19T04:12:46;7.50;;;6.25;;
12956;SDS011;6543;48.836;10.092;2023-06-19T04:15:13;12.45;;;6.75;;
12956;SDS011;6543;48.836;10.092;2023-06-19T04:17:40;7.85;;;6.68;;
12956;SDS011;6543;48.836;10.092;2023-06-19T04:20:07;13.20;;;7.15;;
12956;SDS011;6543;48.836;10.092;2023-06-19T04:22:36;12.43;;;7.25;;
12956;SDS011;6543;48.836;10.092;2023-06-19T04:25:04;16.00;;;8.48;;
12956;SDS011;6543;48.836;10.092;2023-06-19T04:27:32;14.23;;;8.38;;
12956;SDS011;6543;48.836;10.092;2023-06-19T04:30:00;13.73;;;8.57;;
12956;SDS011;6543;48.836;10.092;2023-06-19T04:32:29;12.07;;;7.78;;
12956;SDS011;6543;48.836;10.092;2023-06-19T04:34:56;13.18;;;7.65;;
12956;SDS011;6543;48.836;10.092;2023-06-19T04:37:24;10.30;;;8.35;;
12956;SDS011;6543;48.836;10.092;2023-06-19T04:39:51;18.13;;;8.50;;
12956;SDS011;6543;48.836;10.092;2023-06-19T04:42:17;17.60;;;8.85;;
12956;SDS011;6543;48.836;10.092;2023-06-19T04:44:45;14.45;;;9.07;;
12956;SDS011;6543;48.836;10.092;2023-06-19T04:47:16;19.77;;;7.68;;
12956;SDS011;6543;48.836;10.092;2023-06-19T04:49:44;12.13;;;8.10;;
12956;SDS011;6543;48.836;10.092;2023-06-19T04:52:10;10.88;;;7.15;;
12956;SDS011;6543;48.836;10.092;2023-06-19T04:54:39;10.98;;;6.43;;
12956;SDS011;6543;48.836;10.092;2023-06-19T04:57:07;13.35;;;7.35;;
12956;SDS011;6543;48.836;10.092;2023-06-19T04:59:34;11.02;;;6.15;;
12956;SDS011;6543;48.836;10.092;2023-06-19T05:02:01;11.77;;;5.03;;
12956;SDS011;6543;48.836;10.092;2023-06-19T05:04:30;5.38;;;4.88;;
12956;SDS011;6543;48.836;10.092;2023-06-19T05:06:57;8.35;;;5.80;;
12956;SDS011;6543;48.836;10.092;2023-06-19T05:09:24;9.50;;;4.93;;
12956;SDS011;6543;48.836;10.092;2023-06-19T05:11:51;5.70;;;3.95;;
12956;SDS011;6543;48.836;10.092;2023-06-19T05:14:18;6.10;;;4.35;;
12956;SDS011;6543;48.836;10.092;2023-06-19T05:16:45;6.75;;;3.70;;
12956;SDS011;6543;48.836;10.092;2023-06-19T05:19:12;5.43;;;3.70;;
12956;SDS011;6543;48.836;10.092;2023-06-19T05:21:40;7.40;;;3.80;;
12956;SDS011;6543;48.836;10.092;2023-06-19T05:24:06;5.40;;;3.35;;
12956;SDS011;6543;48.836;10.092;2023-06-19T05:26:33;6.65;;;3.55;;
12956;SDS011;6543;48.836;10.092;2023-06-19T05:29:00;7.20;;;3.47;;
12956;SDS011;6543;48.836;10.092;2023-06-19T05:31:27;3.60;;;3.28;;
12956;SDS011;6543;48.836;10.092;2023-06-19T05:33:53;7.65;;;3.65;;
12956;SDS011;6543;48.836;10.092;2023-06-19T05:36:20;7.40;;;3.65;;
12956;SDS011;6543;48.836;10.092;2023-06-19T05:38:48;4.90;;;4.03;;
12956;SDS011;6543;48.836;10.092;2023-06-19T05:41:15;5.65;;;3.90;;
12956;SDS011;6543;48.836;10.092;2023-06-19T05:43:42;3.92;;;3.63;;
12956;SDS011;6543;48.836;10.092;2023-06-19T05:46:09;4.07;;;3.67;;
12956;SDS011;6543;48.836;10.092;2023-06-19T05:48:37;4.50;;;3.85;;
12956;SDS011;6543;48.836;10.092;2023-06-19T05:51:04;4.50;;;3.53;;
12956;SDS011;6543;48.836;10.092;2023-06-19T05:53:31;4.18;;;3.88;;
12956;SDS011;6543;48.836;10.092;2023-06-19T05:55:59;5.25;;;3.90;;
12956;SDS011;6543;48.836;10.092;2023-06-19T05:58:26;3.70;;;3.30;;
12956;SDS011;6543;48.836;10.092;2023-06-19T06:00:53;3.50;;;3.20;;
12956;SDS011;6543;48.836;10.092;2023-06-19T06:03:22;4.77;;;3.80;;
12956;SDS011;6543;48.836;10.092;2023-06-19T06:05:49;9.18;;;3.30;;
12956;SDS011;6543;48.836;10.092;2023-06-19T06:08:16;3.50;;;3.30;;
12956;SDS011;6543;48.836;10.092;2023-06-19T06:10:43;3.25;;;2.97;;
12956;SDS011;6543;48.836;10.092;2023-06-19T06:13:11;4.70;;;3.35;;
12956;SDS011;6543;48.836;10.092;2023-06-19T06:15:38;4.40;;;3.42;;
12956;SDS011;6543;48.836;10.092;2023-06-19T06:18:05;3.75;;;3.33;;
12956;SDS011;6543;48.836;10.092;2023-06-19T06:20:32;5.07;;;3.33;;
12956;SDS011;6543;48.836;10.092;2023-06-19T06:22:59;6.38;;;3.63;;
12956;SDS011;6543;48.836;10.092;2023-06-19T06:25:25;7.65;;;4.72;;
12956;SDS011;6543;48.836;10.092;2023-06-19T06:27:52;6.20;;;3.92;;
12956;SDS011;6543;48.836;10.092;2023-06-19T06:30:20;7.97;;;4.32;;
12956;SDS011;6543;48.836;10.092;2023-06-19T06:32:47;8.40;;;3.38;;
12956;SDS011;6543;48.836;10.092;2023-06-19T06:35:15;10.75;;;3.95;;
12956;SDS011;6543;48.836;10.092;2023-06-19T06:37:41;6.32;;;3.22;;
12956;SDS011;6543;48.836;10.092;2023-06-19T06:40:09;6.00;;;3.10;;
12956;SDS011;6543;48.836;10.092;2023-06-19T06:42:37;4.20;;;3.33;;
12956;SDS011;6543;48.836;10.092;2023-06-19T06:45:04;5.68;;;3.50;;
12956;SDS011;6543;48.836;10.092;2023-06-19T06:47:34;5.22;;;2.97;;
12956;SDS011;6543;48.836;10.092;2023-06-19T06:50:00;7.68;;;3.65;;
12956;SDS011;6543;48.836;10.092;2023-06-19T06:52:27;9.52;;;3.30;;
12956;SDS011;6543;48.836;10.092;2023-06-19T06:54:55;6.25;;;2.95;;
12956;SDS011;6543;48.836;10.092;2023-06-19T06:57:22;3.03;;;2.80;;
12956;SDS011;6543;48.836;10.092;2023-06-19T06:59:49;7.82;;;3.00;;
12956;SDS011;6543;48.836;10.092;2023-06-19T07:02:15;5.57;;;2.75;;
12956;SDS011;6543;48.836;10.092;2023-06-19T07:04:44;4.30;;;3.28;;
12956;SDS011;6543;48.836;10.092;2023-06-19T07:07:10;4.82;;;3.10;;
12956;SDS011;6543;48.836;10.092;2023-06-19T07:09:37;7.28;;;2.75;;
12956;SDS011;6543;48.836;10.092;2023-06-19T07:12:04;2.63;;;2.42;;
12956;SDS011;6543;48.836;10.092;2023-06-19T07:14:32;3.63;;;2.47;;
12956;SDS011;6543;48.836;10.092;2023-06-19T07:16:59;5.35;;;2.30;;
12956;SDS011;6543;48.836;10.092;2023-06-19T07:19:25;3.00;;;2.53;;
12956;SDS011;6543;48.836;10.092;2023-06-19T07:21:54;3.45;;;2.30;;
12956;SDS011;6543;48.836;10.092;2023-06-19T07:24:20;6.45;;;2.58;;
12956;SDS011;6543;48.836;10.092;2023-06-19T07:26:48;3.17;;;2.83;;
12956;SDS011;6543;48.836;10.092;2023-06-19T07:29:15;2.40;;;2.22;;
12956;SDS011;6543;48.836;10.092;2023-06-19T07:31:42;3.15;;;2.60;;
12956;SDS011;6543;48.836;10.092;2023-06-19T07:34:09;3.35;;;2.10;;
12956;SDS011;6543;48.836;10.092;2023-06-19T07:36:36;3.85;;;2.33;;
12956;SDS011;6543;48.836;10.092;2023-06-19T07:39:04;3.95;;;2.13;;
12956;SDS011;6543;48.836;10.092;2023-06-19T07:41:31;3.70;;;1.80;;
12956;SDS011;6543;48.836;10.092;2023-06-19T07:43:57;2.47;;;1.80;;
12956;SDS011;6543;48.836;10.092;2023-06-19T07:46:24;4.78;;;2.20;;
12956;SDS011;6543;48.836;10.092;2023-06-19T07:48:51;3.35;;;1.67;;
12956;SDS011;6543;48.836;10.092;2023-06-19T07:51:18;2.40;;;2.20;;
12956;SDS011;6543;48.836;10.092;2023-06-19T07:53:46;1.92;;;1.83;;
12956;SDS011;6543;48.836;10.092;2023-06-19T07:56:14;1.92;;;1.60;;
12956;SDS011;6543;48.836;10.092;2023-06-19T07:58:46;2.33;;;1.40;;
12956;SDS011;6543;48.836;10.092;2023-06-19T08:01:13;4.00;;;1.90;;
12956;SDS011;6543;48.836;10.092;2023-06-19T08:03:41;5.78;;;1.90;;
12956;SDS011;6543;48.836;10.092;2023-06-19T08:06:08;3.28;;;2.38;;
12956;SDS011;6543;48.836;10.092;2023-06-19T08:08:35;2.17;;;1.63;;
12956;SDS011;6543;48.836;10.092;2023-06-19T08:11:02;4.45;;;2.65;;
12956;SDS011;6543;48.836;10.092;2023-06-19T08:13:30;3.15;;;1.88;;
12956;SDS011;6543;48.836;10.092;2023-06-19T08:15:57;4.07;;;1.75;;
12956;SDS011;6543;48.836;10.092;2023-06-19T08:18:24;4.07;;;2.05;;
12956;SDS011;6543;48.836;10.092;2023-06-19T08:20:51;3.40;;;1.73;;
12956;SDS011;6543;48.836;10.092;2023-06-19T08:23:18;2.83;;;1.67;;
12956;SDS011;6543;48.836;10.092;2023-06-19T08:25:45;3.28;;;1.90;;
12956;SDS011;6543;48.836;10.092;2023-06-19T08:28:11;6.10;;;1.75;;
12956;SDS011;6543;48.836;10.092;2023-06-19T08:30:39;2.13;;;1.75;;
12956;SDS011;6543;48.836;10.092;2023-06-19T08:33:06;8.30;;;2.10;;
12956;SDS011;6543;48.836;10.092;2023-06-19T08:35:33;8.38;;;1.77;;
12956;SDS011;6543;48.836;10.092;2023-06-19T08:38:00;1.60;;;1.50;;
12956;SDS011;6543;48.836;10.092;2023-06-19T08:40:27;2.30;;;1.67;;
12956;SDS011;6543;48.836;10.092;2023-06-19T08:42:54;1.70;;;1.60;;
12956;SDS011;6543;48.836;10.092;2023-06-19T08:45:21;8.88;;;2.08;;
12956;SDS011;6543;48.836;10.092;2023-06-19T08:47:49;2.78;;;2.35;;
12956;SDS011;6543;48.836;10.092;2023-06-19T08:50:23;4.60;;;1.73;;
12956;SDS011;6543;48.836;10.092;2023-06-19T08:52:50;7.90;;;2.30;;
12956;SDS011;6543;48.836;10.092;2023-06-19T08:55:17;2.22;;;1.98;;
12956;SDS011;6543;48.836;10.092;2023-06-19T08:57:44;4.78;;;2.30;;
12956;SDS011;6543;48.836;10.092;2023-06-19T09:00:22;4.95;;;2.03;;
12956;SDS011;6543;48.836;10.092;2023-06-19T09:02:52;2.20;;;2.00;;
12956;SDS011;6543;48.836;10.092;2023-06-19T09:05:24;2.25;;;2.05;;
12956;SDS011;6543;48.836;10.092;2023-06-19T09:07:55;2.35;;;1.83;;
12956;SDS011;6543;48.836;10.092;2023-06-19T09:10:22;1.80;;;1.60;;
12956;SDS011;6543;48.836;10.092;2023-06-19T09:12:56;1.85;;;1.75;;
12956;SDS011;6543;48.836;10.092;2023-06-19T09:15:26;3.15;;;1.58;;
12956;SDS011;6543;48.836;10.092;2023-06-19T09:18:05;1.98;;;1.50;;
12956;SDS011;6543;48.836;10.092;2023-06-19T09:20:34;1.83;;;1.70;;
12956;SDS011;6543;48.836;10.092;2023-06-19T09:23:04;2.13;;;1.50;;
12956;SDS011;6543;48.836;10.092;2023-06-19T09:25:31;1.80;;;1.70;;
12956;SDS011;6543;48.836;10.092;2023-06-19T09:27:58;6.65;;;1.85;;
12956;SDS011;6543;48.836;10.092;2023-06-19T09:30:25;3.20;;;1.50;;
12956;SDS011;6543;48.836;10.092;2023-06-19T09:32:52;1.98;;;1.77;;
12956;SDS011;6543;48.836;10.092;2023-06-19T09:35:20;2.25;;;1.83;;
12956;SDS011;6543;48.836;10.092;2023-06-19T09:37:47;4.38;;;2.00;;
12956;SDS011;6543;48.836;10.092;2023-06-19T09:40:17;2.40;;;2.00;;
12956;SDS011;6543;48.836;10.092;2023-06-19T09:42:44;3.65;;;2.00;;
12956;SDS011;6543;48.836;10.092;2023-06-19T09:45:12;9.88;;;2.10;;
12956;SDS011;6543;48.836;10.092;2023-06-19T09:47:42;2.05;;;1.95;;
12956;SDS011;6543;48.836;10.092;2023-06-19T09:50:11;2.05;;;1.85;;
12956;SDS011;6543;48.836;10.092;2023-06-19T09:52:41;6.13;;;1.80;;
12956;SDS011;6543;48.836;10.092;2023-06-19T09:55:09;2.38;;;1.83;;
12956;SDS011;6543;48.836;10.092;2023-06-19T09:57:38;2.05;;;1.60;;
12956;SDS011;6543;48.836;10.092;2023-06-19T10:00:10;2.92;;;1.70;;
12956;SDS011;6543;48.836;10.092;2023-06-19T10:02:40;2.10;;;1.90;;
12956;SDS011;6543;48.836;10.092;2023-06-19T10:05:08;2.33;;;1.60;;
12956;SDS011;6543;48.836;10.092;2023-06-19T10:07:38;1.40;;;1.30;;
12956;SDS011;6543;48.836;10.092;2023-06-19T10:10:08;2.33;;;1.73;;
12956;SDS011;6543;48.836;10.092;2023-06-19T10:12:41;1.65;;;1.55;;
12956;SDS011;6543;48.836;10.092;2023-06-19T10:15:10;1.50;;;1.40;;
12956;SDS011;6543;48.836;10.092;2023-06-19T10:17:42;2.30;;;1.85;;
12956;SDS011;6543;48.836;10.092;2023-06-19T10:20:18;1.63;;;1.52;;
12956;SDS011;6543;48.836;10.092;2023-06-19T10:22:52;1.70;;;1.60;;
12956;SDS011;6543;48.836;10.092;2023-06-19T10:25:23;1.80;;;1.70;;
12956;SDS011;6543;48.836;10.092;2023-06-19T10:27:50;2.20;;;2.00;;
12956;SDS011;6543;48.836;10.092;2023-06-19T10:30:18;2.95;;;2.00;;
12956;SDS011;6543;48.836;10.092;2023-06-19T10:32:46;1.25;;;1.25;;
12956;SDS011;6543;48.836;10.092;2023-06-19T10:35:13;1.80;;;1.70;;
12956;SDS011;6543;48.836;10.092;2023-06-19T10:37:46;2.83;;;2.40;;
12956;SDS011;6543;48.836;10.092;2023-06-19T10:40:15;2.13;;;1.65;;
12956;SDS011;6543;48.836;10.092;2023-06-19T10:42:43;11.88;;;2.38;;
12956;SDS011;6543;48.836;10.092;2023-06-19T10:45:11;2.83;;;2.58;;
12956;SDS011;6543;48.836;10.092;2023-06-19T10:47:41;4.72;;;2.97;;
12956;SDS011;6543;48.836;10.092;2023-06-19T10:50:11;2.17;;;2.00;;
12956;SDS011;6543;48.836;10.092;2023-06-19T10:52:40;2.45;;;2.13;;
12956;SDS011;6543;48.836;10.092;2023-06-19T10:55:14;1.88;;;1.77;;
12956;SDS011;6543;48.836;10.092;2023-06-19T10:57:44;2.50;;;2.30;;
12956;SDS011;6543;48.836;10.092;2023-06-19T11:00:22;4.85;;;2.15;;
12956;SDS011;6543;48.836;10.092;2023-06-19T11:02:54;2.25;;;2.00;;
12956;SDS011;6543;48.836;10.092;2023-06-19T11:05:24;3.22;;;2.20;;
12956;SDS011;6543;48.836;10.092;2023-06-19T11:07:59;2.13;;;1.90;;
12956;SDS011;6543;48.836;10.092;2023-06-19T11:10:28;5.63;;;3.22;;
12956;SDS011;6543;48.836;10.092;2023-06-19T11:12:57;3.97;;;2.30;;
12956;SDS011;6543;48.836;10.092;2023-06-19T11:15:28;3.60;;;3.25;;
12956;SDS011;6543;48.836;10.092;2023-06-19T11:17:56;6.25;;;5.50;;
12956;SDS011;6543;48.836;10.092;2023-06-19T11:20:23;2.55;;;2.35;;
12956;SDS011;6543;48.836;10.092;2023-06-19T11:22:54;4.28;;;2.30;;
12956;SDS011;6543;48.836;10.092;2023-06-19T11:25:22;3.58;;;2.03;;
12956;SDS011;6543;48.836;10.092;2023-06-19T11:27:52;4.05;;;1.80;;
12956;SDS011;6543;48.836;10.092;2023-06-19T11:30:29;3.65;;;2.15;;
12956;SDS011;6543;48.836;10.092;2023-06-19T11:33:16;3.95;;;2.00;;
12956;SDS011;6543;48.836;10.092;2023-06-19T11:35:47;3.35;;;1.77;;
12956;SDS011;6543;48.836;10.092;2023-06-19T11:38:16;2.08;;;1.67;;
12956;SDS011;6543;48.836;10.092;2023-06-19T11:40:44;2.20;;;2.00;;
12956;SDS011;6543;48.836;10.092;2023-06-19T11:43:22;6.55;;;2.25;;
12956;SDS011;6543;48.836;10.092;2023-06-19T11:45:50;4.90;;;2.10;;
12956;SDS011;6543;48.836;10.092;2023-06-19T11:48:23;2.05;;;1.95;;
12956;SDS011;6543;48.836;10.092;2023-06-19T11:50:50;3.80;;;1.85;;
12956;SDS011;6543;48.836;10.092;2023-06-19T11:53:18;3.30;;;1.77;;
12956;SDS011;6543;48.836;10.092;2023-06-19T11:55:47;3.00;;;1.55;;
12956;SDS011;6543;48.836;10.092;2023-06-19T11:58:15;1.60;;;1.50;;
12956;SDS011;6543;48.836;10.092;2023-06-19T12:00:44;2.38;;;1.70;;
12956;SDS011;6543;48.836;10.092;2023-06-19T12:03:11;3.17;;;1.60;;
12956;SDS011;6543;48.836;10.092;2023-06-19T12:05:38;1.73;;;1.63;;
12956;SDS011;6543;48.836;10.092;2023-06-19T12:08:06;2.30;;;1.83;;
12956;SDS011;6543;48.836;10.092;2023-06-19T12:10:33;1.60;;;1.50;;
12956;SDS011;6543;48.836;10.092;2023-06-19T12:13:00;1.42;;;1.33;;
12956;SDS011;6543;48.836;10.092;2023-06-19T12:15:28;2.90;;;1.40;;
12956;SDS011;6543;48.836;10.092;2023-06-19T12:17:55;1.92;;;1.70;;
12956;SDS011;6543;48.836;10.092;2023-06-19T12:20:23;5.28;;;1.95;;
12956;SDS011;6543;48.836;10.092;2023-06-19T12:22:50;1.80;;;1.60;;
12956;SDS011;6543;48.836;10.092;2023-06-19T12:25:17;3.38;;;1.60;;
12956;SDS011;6543;48.836;10.092;2023-06-19T12:27:43;3.10;;;1.52;;
12956;SDS011;6543;48.836;10.092;2023-06-19T12:30:11;1.45;;;1.35;;
12956;SDS011;6543;48.836;10.092;2023-06-19T12:32:39;4.95;;;1.70;;
12956;SDS011;6543;48.836;10.092;2023-06-19T12:35:06;3.33;;;1.70;;
12956;SDS011;6543;48.836;10.092;2023-06-19T12:37:34;7.57;;;1.95;;
12956;SDS011;6543;48.836;10.092;2023-06-19T12:40:01;11.32;;;1.95;;
12956;SDS011;6543;48.836;10.092;2023-06-19T12:42:42;1.30;;;1.17;;
12956;SDS011;6543;48.836;10.092;2023-06-19T12:45:10;6.95;;;1.42;;
12956;SDS011;6543;48.836;10.092;2023-06-19T12:47:36;11.10;;;1.77;;
12956;SDS011;6543;48.836;10.092;2023-06-19T12:50:05;1.55;;;1.45;;
12956;SDS011;6543;48.836;10.092;2023-06-19T12:52:33;1.58;;;1.48;;
12956;SDS011;6543;48.836;10.092;2023-06-19T12:55:00;2.20;;;1.60;;
12956;SDS011;6543;48.836;10.092;2023-06-19T12:57:27;1.40;;;1.30;;
12956;SDS011;6543;48.836;10.092;2023-06-19T12:59:54;1.67;;;1.42;;
12956;SDS011;6543;48.836;10.092;2023-06-19T13:02:21;6.68;;;1.80;;
12956;SDS011;6543;48.836;10.092;2023-06-19T13:04:48;7.53;;;1.98;;
12956;SDS011;6543;48.836;10.092;2023-06-19T13:07:18;4.20;;;1.30;;
12956;SDS011;6543;48.836;10.092;2023-06-19T13:09:51;2.00;;;1.70;;
12956;SDS011;6543;48.836;10.092;2023-06-19T13:12:18;1.58;;;1.48;;
12956;SDS011;6543;48.836;10.092;2023-06-19T13:14:48;1.70;;;1.40;;
12956;SDS011;6543;48.836;10.092;2023-06-19T13:17:14;4.18;;;1.92;;
12956;SDS011;6543;48.836;10.092;2023-06-19T13:19:41;1.45;;;1.35;;
12956;SDS011;6543;48.836;10.092;2023-06-19T13:22:08;2.95;;;2.47;;
12956;SDS011;6543;48.836;10.092;2023-06-19T13:24:36;3.92;;;3.00;;
12956;SDS011;6543;48.836;10.092;2023-06-19T13:27:04;3.30;;;2.25;;
12956;SDS011;6543;48.836;10.092;2023-06-19T13:29:31;6.65;;;2.55;;
12956;SDS011;6543;48.836;10.092;2023-06-19T13:31:57;3.83;;;2.17;;
12956;SDS011;6543;48.836;10.092;2023-06-19T13:34:24;3.53;;;1.90;;
12956;SDS011;6543;48.836;10.092;2023-06-19T13:36:52;5.63;;;2.95;;
12956;SDS011;6543;48.836;10.092;2023-06-19T13:39:19;7.03;;;2.25;;
12956;SDS011;6543;48.836;10.092;2023-06-19T13:41:50;3.78;;;2.05;;
12956;SDS011;6543;48.836;10.092;2023-06-19T13:44:19;5.13;;;2.30;;
12956;SDS011;6543;48.836;10.092;2023-06-19T13:46:46;2.13;;;1.95;;
12956;SDS011;6543;48.836;10.092;2023-06-19T13:49:14;2.38;;;2.13;;
12956;SDS011;6543;48.836;10.092;2023-06-19T13:51:41;1.83;;;1.73;;
12956;SDS011;6543;48.836;10.092;2023-06-19T13:54:09;3.65;;;1.60;;
12956;SDS011;6543;48.836;10.092;2023-06-19T13:56:38;1.80;;;1.70;;
12956;SDS011;6543;48.836;10.092;2023-06-19T13:59:06;1.85;;;1.63;;
12956;SDS011;6543;48.836;10.092;2023-06-19T14:01:33;1.77;;;1.65;;
12956;SDS011;6543;48.836;10.092;2023-06-19T14:04:00;2.13;;;1.92;;
12956;SDS011;6543;48.836;10.092;2023-06-19T14:06:27;3.40;;;2.55;;
12956;SDS011;6543;48.836;10.092;2023-06-19T14:08:55;2.25;;;1.90;;
12956;SDS011;6543;48.836;10.092;2023-06-19T14:11:22;3.58;;;2.10;;
12956;SDS011;6543;48.836;10.092;2023-06-19T14:13:49;2.45;;;2.20;;
12956;SDS011;6543;48.836;10.092;2023-06-19T14:16:17;1.80;;;1.67;;
12956;SDS011;6543;48.836;10.092;2023-06-19T14:18:44;5.72;;;3.08;;
12956;SDS011;6543;48.836;10.092;2023-06-19T14:21:11;2.20;;;2.00;;
12956;SDS011;6543;48.836;10.092;2023-06-19T14:23:38;2.40;;;2.20;;
12956;SDS011;6543;48.836;10.092;2023-06-19T14:26:08;1.65;;;1.55;;
12956;SDS011;6543;48.836;10.092;2023-06-19T14:28:36;4.13;;;1.73;;
12956;SDS011;6543;48.836;10.092;2023-06-19T14:31:04;3.25;;;1.95;;
12956;SDS011;6543;48.836;10.092;2023-06-19T14:33:33;2.75;;;2.00;;
12956;SDS011;6543;48.836;10.092;2023-06-19T14:36:02;2.10;;;2.00;;
12956;SDS011;6543;48.836;10.092;2023-06-19T14:38:29;2.63;;;1.75;;
12956;SDS011;6543;48.836;10.092;2023-06-19T14:40:58;2.30;;;1.98;;
12956;SDS011;6543;48.836;10.092;2023-06-19T14:43:25;4.80;;;1.80;;
12956;SDS011;6543;48.836;10.092;2023-06-19T14:45:53;3.50;;;2.00;;
12956;SDS011;6543;48.836;10.092;2023-06-19T14:48:20;3.45;;;1.65;;
12956;SDS011;6543;48.836;10.092;2023-06-19T14:50:48;1.50;;;1.40;;